aviador You're here:

KOVE Decoded Metar

OROVILLE in CA, USA
Report Time2017-11-25 04:53:00
UTC Time2017-11-25 05:35:44
Flight Rules mvfr MVFR
Wind310° at 04 kt
W.Decomp.*RWY 31: 3.8 kt HW 1.1 kt LCW
RWY 02: 0.3 kt HW 4 kt LCW
W.Rank310° ranks 9
Current wind is below 310° avg. (6.2)
Visibility8047 m
Phenomena:Mist
Clouds:N/A
Expected CloudBase > 400 ft AGL from Temp-Dew spread
CeilingNone
Temp14°C (ISA -1)
Dew Point13°C (94% RH)
AAT13.5°C
QNH1018 hPa
Density Alt148 ft
Elevation190 ft
Report Wrong Elevation
Raw Report
KOVE 250453Z AUTO 31004KT 5SM BR CLR 14/13 A3005 RMK AO2 SLP178
T01390133=

Extra information for KOVE:More info

Metar Taf Metar & Taf Last 4 Metars F.Rules Stats Wind Profile Meteogram Temp Stats Airport Information Weather charts Add Link Nearby VenuesMetar ALERT Operation Metar Decoded Social comments

AIRNAV info for KOVE